Time;durP1;ratioP1;P1;durP2;ratioP2;P2;SDS_P1;SDS_P2;PMS_P1;PMS_P2;Temp;Humidity;BMP_temperature;BMP_pressure;BME280_temperature;BME280_humidity;BME280_pressure;Samples;Min_cycle;Max_cycle;Signal;HPM_P1;HPM_P2
2020/12/01 00:01:26;;;;;;;7.43;6.50;;;3.30;99.90;;;;;;5090171;28;20673;-75
2020/12/01 00:03:52;;;;;;;7.53;6.83;;;3.20;99.90;;;;;;5090315;28;20246;-74
2020/12/01 00:06:19;;;;;;;7.33;6.63;;;3.20;99.90;;;;;;5090315;28;20203;-74
2020/12/01 00:08:45;;;;;;;8.87;7.33;;;3.20;99.90;;;;;;5090340;28;20215;-74
2020/12/01 00:11:14;;;;;;;7.03;6.43;;;3.20;99.90;;;;;;5090210;28;20238;-76
2020/12/01 00:13:41;;;;;;;7.20;6.50;;;3.20;99.90;;;;;;5089758;28;20679;-75
2020/12/01 00:16:11;;;;;;;7.97;7.17;;;3.20;99.90;;;;;;5090066;28;20205;-75
2020/12/01 00:18:38;;;;;;;7.20;6.53;;;3.20;99.90;;;;;;5089860;28;20194;-76
2020/12/01 00:21:04;;;;;;;7.50;6.70;;;3.20;99.90;;;;;;5089951;28;20216;-76
2020/12/01 00:23:30;;;;;;;7.77;6.97;;;3.20;99.90;;;;;;5089955;28;20211;-75
2020/12/01 00:25:57;;;;;;;7.77;7.07;;;3.20;99.90;;;;;;5090066;28;20214;-77
2020/12/01 00:28:24;;;;;;;7.40;6.70;;;3.20;99.90;;;;;;5089899;28;20579;-76
2020/12/01 00:30:50;;;;;;;8.10;7.30;;;3.20;99.90;;;;;;5089500;28;20259;-75
2020/12/01 00:33:17;;;;;;;9.77;7.20;;;3.20;99.90;;;;;;5089307;28;20205;-75
2020/12/01 00:35:43;;;;;;;8.00;7.10;;;3.20;99.90;;;;;;5089248;28;20303;-74
2020/12/01 00:38:09;;;;;;;7.60;6.90;;;3.20;99.90;;;;;;5088727;28;20235;-75
2020/12/01 00:40:36;;;;;;;8.20;7.50;;;3.20;99.90;;;;;;5089700;28;20294;-75
2020/12/01 00:43:02;;;;;;;7.67;6.97;;;3.20;99.90;;;;;;5089402;28;20295;-75
2020/12/01 00:45:29;;;;;;;7.90;7.10;;;3.20;99.90;;;;;;5089366;28;20203;-75
2020/12/01 00:47:56;;;;;;;8.03;7.23;;;3.20;99.90;;;;;;5089449;28;20337;-74
2020/12/01 00:50:24;;;;;;;7.70;6.97;;;3.20;99.90;;;;;;5089218;28;20238;-75
2020/12/01 00:52:51;;;;;;;8.37;7.57;;;3.20;99.90;;;;;;5089324;28;20615;-75
2020/12/01 00:55:18;;;;;;;7.87;7.13;;;3.20;99.90;;;;;;5089479;28;20242;-74
2020/12/01 00:57:44;;;;;;;7.43;6.73;;;3.20;99.90;;;;;;5089318;28;20207;-75
2020/12/01 01:00:16;;;;;;;8.33;7.53;;;3.20;99.90;;;;;;5088845;28;20203;-75
2020/12/01 01:02:43;;;;;;;10.47;9.30;;;3.20;99.90;;;;;;5089188;28;20297;-74
2020/12/01 01:05:09;;;;;;;7.93;7.13;;;3.30;99.90;;;;;;5088841;28;20210;-75
2020/12/01 01:07:36;;;;;;;8.10;7.37;;;3.20;99.90;;;;;;5089279;28;20206;-75
2020/12/01 01:10:03;;;;;;;8.07;7.27;;;3.20;99.90;;;;;;5089261;28;20305;-75
2020/12/01 01:12:29;;;;;;;9.73;7.80;;;3.20;99.90;;;;;;5089121;28;20342;-75
2020/12/01 01:14:56;;;;;;;7.77;7.07;;;3.20;99.90;;;;;;5088897;28;20238;-75
2020/12/01 01:17:22;;;;;;;8.37;7.53;;;3.20;99.90;;;;;;5088688;28;20572;-75
2020/12/01 01:19:49;;;;;;;8.27;7.47;;;3.20;99.90;;;;;;5088825;28;20215;-75
2020/12/01 01:22:15;;;;;;;7.50;6.83;;;3.20;99.90;;;;;;5088584;28;20210;-75
2020/12/01 01:24:42;;;;;;;8.67;7.77;;;3.20;99.90;;;;;;5088774;28;20575;-75
2020/12/01 01:27:08;;;;;;;8.30;7.40;;;3.20;99.90;;;;;;5088569;28;20219;-75
2020/12/01 01:29:34;;;;;;;9.20;8.20;;;3.20;99.90;;;;;;5089074;28;20213;-76
2020/12/01 01:32:01;;;;;;;8.07;7.27;;;3.20;99.90;;;;;;5088978;28;20203;-75
2020/12/01 01:34:27;;;;;;;8.23;7.33;;;3.20;99.90;;;;;;5099376;28;20230;-75
2020/12/01 01:36:54;;;;;;;7.73;7.10;;;3.20;99.90;;;;;;5101189;28;20212;-75
2020/12/01 01:39:21;;;;;;;8.73;7.87;;;3.20;99.90;;;;;;5100695;28;20657;-75
2020/12/01 01:41:47;;;;;;;8.33;7.57;;;3.20;99.90;;;;;;5088528;28;20209;-75
2020/12/01 01:44:23;;;;;;;8.00;7.20;;;3.20;99.90;;;;;;5099860;28;20610;-75
2020/12/01 01:46:52;;;;;;;8.67;7.73;;;3.20;99.90;;;;;;5109006;28;20206;-74
2020/12/01 01:49:22;;;;;;;8.37;7.60;;;3.20;99.90;;;;;;5094728;28;20310;-75
2020/12/01 01:51:51;;;;;;;8.50;7.60;;;3.20;99.90;;;;;;5088096;28;20218;-74
2020/12/01 01:54:20;;;;;;;8.93;7.87;;;3.20;99.90;;;;;;5087949;28;20742;-75
2020/12/01 01:56:50;;;;;;;9.03;8.13;;;3.20;99.90;;;;;;5088513;28;20301;-76
2020/12/01 01:59:17;;;;;;;9.90;8.13;;;3.20;99.90;;;;;;5088497;28;20195;-76
2020/12/01 02:01:44;;;;;;;9.57;8.57;;;3.20;99.90;;;;;;5088500;28;20253;-76
2020/12/01 02:04:14;;;;;;;9.30;8.30;;;3.20;99.90;;;;;;5088170;28;20567;-76
2020/12/01 02:06:42;;;;;;;9.80;8.20;;;3.20;99.90;;;;;;5088665;28;20207;-76
2020/12/01 02:09:13;;;;;;;9.53;8.63;;;3.30;99.90;;;;;;5088205;28;20566;-76
2020/12/01 02:11:43;;;;;;;11.00;8.77;;;3.20;99.90;;;;;;5088497;28;20222;-75
2020/12/01 02:14:13;;;;;;;10.63;8.50;;;3.20;99.90;;;;;;5087880;28;20346;-74
2020/12/01 02:16:43;;;;;;;10.47;9.43;;;3.20;99.90;;;;;;5087820;28;20199;-74
2020/12/01 02:19:13;;;;;;;9.10;8.20;;;3.20;99.90;;;;;;5088006;28;20203;-74
2020/12/01 02:21:41;;;;;;;10.00;9.00;;;3.20;99.90;;;;;;5088046;28;20191;-75
2020/12/01 02:24:11;;;;;;;10.93;9.53;;;3.30;99.90;;;;;;5087711;28;20208;-75
2020/12/01 02:26:39;;;;;;;10.07;9.07;;;3.30;99.90;;;;;;5088373;28;20203;-75
2020/12/01 02:29:10;;;;;;;10.27;8.83;;;3.30;99.90;;;;;;5088109;28;20608;-76
2020/12/01 02:31:37;;;;;;;10.80;9.40;;;3.30;99.90;;;;;;5088291;28;20210;-75
2020/12/01 02:34:06;;;;;;;9.97;8.97;;;3.30;99.90;;;;;;5087708;28;20317;-75
2020/12/01 02:36:32;;;;;;;10.77;9.37;;;3.30;99.90;;;;;;5088138;28;20202;-76
2020/12/01 02:38:59;;;;;;;10.30;9.30;;;3.30;99.90;;;;;;5087761;28;20637;-75
2020/12/01 02:41:25;;;;;;;12.00;9.50;;;3.30;99.90;;;;;;5088068;28;20203;-76
2020/12/01 02:43:52;;;;;;;11.53;9.83;;;3.30;99.90;;;;;;5088069;28;20203;-75
2020/12/01 02:46:19;;;;;;;10.83;9.73;;;3.30;99.90;;;;;;5087815;28;20198;-75
2020/12/01 02:48:45;;;;;;;10.87;9.77;;;3.30;99.90;;;;;;5088201;28;20210;-74
2020/12/01 02:51:12;;;;;;;10.87;9.63;;;3.30;99.90;;;;;;5087904;28;20290;-74
2020/12/01 02:53:38;;;;;;;11.27;10.07;;;3.30;99.90;;;;;;5087567;28;20310;-75
2020/12/01 02:56:04;;;;;;;11.53;10.13;;;3.30;99.90;;;;;;5087787;28;20205;-74
2020/12/01 02:58:31;;;;;;;10.80;9.70;;;3.30;99.90;;;;;;5087955;28;20776;-75
2020/12/01 03:00:58;;;;;;;12.40;11.07;;;3.30;99.90;;;;;;5090241;28;20311;-75
2020/12/01 03:03:24;;;;;;;13.13;10.53;;;3.30;99.90;;;;;;5091288;28;20302;-75
2020/12/01 03:05:51;;;;;;;12.40;10.87;;;3.30;99.90;;;;;;5091145;28;20622;-75
2020/12/01 03:08:17;;;;;;;12.83;10.30;;;3.30;99.90;;;;;;5091473;28;20232;-75
2020/12/01 03:10:43;;;;;;;13.30;11.07;;;3.30;99.90;;;;;;5091326;28;20205;-75
2020/12/01 03:13:10;;;;;;;13.17;11.77;;;3.30;99.90;;;;;;5091103;28;20226;-75
2020/12/01 03:15:36;;;;;;;12.53;11.17;;;3.30;99.90;;;;;;5090832;28;20599;-75
2020/12/01 03:18:03;;;;;;;15.60;11.03;;;3.30;99.90;;;;;;5091441;28;20202;-75
2020/12/01 03:20:30;;;;;;;12.40;11.10;;;3.40;99.90;;;;;;5090735;28;20207;-74
2020/12/01 03:22:56;;;;;;;15.13;11.70;;;3.20;99.90;;;;;;5091298;28;20217;-75
2020/12/01 03:25:22;;;;;;;12.77;11.47;;;3.20;99.90;;;;;;5091000;28;20211;-74
2020/12/01 03:27:49;;;;;;;14.20;12.00;;;3.20;99.90;;;;;;5091082;28;20207;-75
2020/12/01 03:30:15;;;;;;;13.27;11.60;;;3.20;99.90;;;;;;5090844;28;20213;-75
2020/12/01 03:32:41;;;;;;;13.33;11.90;;;3.20;99.90;;;;;;5090845;28;20215;-75
2020/12/01 03:35:08;;;;;;;12.80;11.50;;;3.20;99.90;;;;;;5090700;28;20594;-75
2020/12/01 03:37:35;;;;;;;13.97;12.17;;;3.30;99.90;;;;;;5090978;28;20302;-74
2020/12/01 03:40:01;;;;;;;14.00;12.30;;;3.20;99.90;;;;;;5090362;28;20646;-75
2020/12/01 03:42:27;;;;;;;15.23;12.60;;;3.30;99.90;;;;;;5090263;28;20731;-75
2020/12/01 03:44:54;;;;;;;14.97;13.00;;;3.30;99.90;;;;;;5090701;28;20209;-75
2020/12/01 03:47:20;;;;;;;14.67;13.03;;;3.20;99.90;;;;;;5090560;28;20211;-75
2020/12/01 03:49:46;;;;;;;15.57;13.63;;;3.30;99.90;;;;;;5090254;28;20209;-76
2020/12/01 03:52:14;;;;;;;16.27;12.87;;;3.30;99.90;;;;;;5090372;28;20230;-75
2020/12/01 03:54:40;;;;;;;15.40;12.67;;;3.30;99.90;;;;;;5090532;28;20309;-75
2020/12/01 03:57:07;;;;;;;14.50;12.57;;;3.30;99.90;;;;;;5090469;28;20669;-75
2020/12/01 03:59:33;;;;;;;16.10;13.70;;;3.30;99.90;;;;;;5090311;28;20574;-74
2020/12/01 04:01:59;;;;;;;16.67;13.67;;;3.30;99.90;;;;;;5090191;28;20663;-74
2020/12/01 04:04:28;;;;;;;15.50;13.17;;;3.30;99.90;;;;;;5089698;28;20695;-74
2020/12/01 04:06:56;;;;;;;16.70;13.63;;;3.30;99.90;;;;;;5095646;28;20237;-76
2020/12/01 04:09:23;;;;;;;17.80;14.37;;;3.30;99.90;;;;;;5099997;28;20662;-75
2020/12/01 04:11:50;;;;;;;17.20;14.00;;;3.30;99.90;;;;;;5092118;28;20286;-76
2020/12/01 04:14:16;;;;;;;17.20;14.23;;;3.30;99.90;;;;;;5089704;28;20345;-76
2020/12/01 04:16:43;;;;;;;17.67;13.80;;;3.30;99.90;;;;;;5095302;28;20204;-76
2020/12/01 04:19:09;;;;;;;15.93;13.80;;;3.30;99.90;;;;;;5106248;28;20349;-75
2020/12/01 04:21:36;;;;;;;15.47;13.50;;;3.30;99.90;;;;;;5093365;28;20203;-75
2020/12/01 04:24:03;;;;;;;17.73;14.03;;;3.30;99.90;;;;;;5086036;28;20207;-75
2020/12/01 04:26:30;;;;;;;17.93;14.70;;;3.30;99.90;;;;;;5085821;28;20327;-76
2020/12/01 04:28:56;;;;;;;20.13;14.57;;;3.30;99.90;;;;;;5085714;28;20206;-76
2020/12/01 04:31:22;;;;;;;19.20;14.63;;;3.30;99.90;;;;;;5085879;28;20225;-76
2020/12/01 04:33:49;;;;;;;20.83;16.00;;;3.30;99.90;;;;;;5085981;28;20583;-76
2020/12/01 04:36:15;;;;;;;19.53;15.03;;;3.30;99.90;;;;;;5086014;28;20209;-75
2020/12/01 04:38:41;;;;;;;29.23;23.17;;;3.30;99.90;;;;;;5085946;28;20303;-75
2020/12/01 04:41:10;;;;;;;18.83;16.37;;;3.30;99.90;;;;;;5093272;28;20198;-76
2020/12/01 04:43:42;;;;;;;27.77;21.83;;;3.20;99.90;;;;;;5095702;28;20209;-77
2020/12/01 04:46:13;;;;;;;24.77;18.27;;;3.20;99.90;;;;;;5100389;28;20198;-75
2020/12/01 04:48:43;;;;;;;21.73;17.70;;;3.10;99.90;;;;;;5105987;28;20633;-75
2020/12/01 04:51:25;;;;;;;18.63;15.67;;;3.10;99.90;;;;;;5105886;28;20194;-75
2020/12/01 04:54:30;;;;;;;22.57;16.13;;;3.10;99.90;;;;;;5105777;28;20240;-75
2020/12/01 04:57:27;;;;;;;20.87;16.10;;;3.20;99.90;;;;;;5105993;28;20205;-75
2020/12/01 05:00:15;;;;;;;23.00;15.83;;;3.20;99.90;;;;;;5102984;28;20551;-76
2020/12/01 05:03:09;;;;;;;22.20;17.10;;;3.20;99.90;;;;;;5109363;28;20273;-76
2020/12/01 05:05:58;;;;;;;21.90;16.20;;;3.30;99.90;;;;;;5095301;28;20264;-75
2020/12/01 05:08:46;;;;;;;22.03;16.43;;;3.30;99.90;;;;;;5086971;28;20194;-76
2020/12/01 05:11:21;;;;;;;23.60;16.87;;;3.30;99.90;;;;;;5090965;28;20923;-75
2020/12/01 05:13:55;;;;;;;20.63;16.00;;;3.30;99.90;;;;;;5096194;28;20241;-76
2020/12/01 05:16:39;;;;;;;20.73;16.33;;;3.20;99.90;;;;;;5096444;28;20222;-75
2020/12/01 05:19:34;;;;;;;19.37;15.47;;;3.20;99.90;;;;;;5101187;28;20198;-76
2020/12/01 05:22:00;;;;;;;19.80;15.77;;;3.20;99.90;;;;;;5085945;28;20238;-75
2020/12/01 05:24:37;;;;;;;20.70;16.07;;;3.20;99.90;;;;;;5086776;28;20203;-75
2020/12/01 05:27:04;;;;;;;20.83;16.53;;;3.20;99.90;;;;;;5087474;28;20191;-76
2020/12/01 05:29:30;;;;;;;20.03;16.03;;;3.20;99.90;;;;;;5087066;28;20206;-75
2020/12/01 05:31:58;;;;;;;23.10;17.73;;;3.20;99.90;;;;;;5087074;28;20243;-76
2020/12/01 05:34:24;;;;;;;21.47;16.80;;;3.20;99.90;;;;;;5087182;28;20313;-76
2020/12/01 05:36:53;;;;;;;20.77;17.07;;;3.20;99.90;;;;;;5087309;28;20628;-76
2020/12/01 05:39:21;;;;;;;20.23;16.20;;;3.20;99.90;;;;;;5087411;28;20711;-76
2020/12/01 05:42:00;;;;;;;23.43;17.83;;;3.30;99.90;;;;;;5086786;28;20665;-75
2020/12/01 05:44:29;;;;;;;22.83;16.97;;;3.20;99.90;;;;;;5086647;28;20294;-76
2020/12/01 05:47:03;;;;;;;21.60;16.93;;;3.20;99.90;;;;;;5086922;28;20199;-76
2020/12/01 05:49:40;;;;;;;23.93;17.23;;;3.20;99.90;;;;;;5086553;28;20190;-76
2020/12/01 05:52:15;;;;;;;21.80;17.43;;;3.20;99.90;;;;;;5086900;28;20323;-76
2020/12/01 05:54:43;;;;;;;22.73;17.47;;;3.20;99.90;;;;;;5087065;28;20210;-75
2020/12/01 05:57:18;;;;;;;21.83;16.93;;;3.30;99.90;;;;;;5087086;28;20298;-75
2020/12/01 05:59:53;;;;;;;20.90;17.50;;;3.20;99.90;;;;;;5086893;28;20284;-75
2020/12/01 06:02:27;;;;;;;23.33;18.00;;;3.20;99.90;;;;;;5086456;28;20213;-76
2020/12/01 06:04:55;;;;;;;22.47;17.20;;;3.20;99.90;;;;;;5086687;28;20290;-76
2020/12/01 06:07:26;;;;;;;24.50;17.63;;;3.20;99.90;;;;;;5103103;28;20202;-76
2020/12/01 06:10:16;;;;;;;23.13;18.60;;;3.20;99.90;;;;;;5098017;28;20201;-76
2020/12/01 06:13:02;;;;;;;24.67;18.33;;;3.20;99.90;;;;;;5097398;28;20221;-76
2020/12/01 06:15:29;;;;;;;22.43;17.47;;;3.20;99.90;;;;;;5092373;28;20218;-76
2020/12/01 06:18:02;;;;;;;22.90;18.40;;;3.20;99.90;;;;;;5092621;28;20286;-75
2020/12/01 06:20:34;;;;;;;25.23;18.73;;;3.20;99.90;;;;;;5104869;28;20239;-75
2020/12/01 06:23:36;;;;;;;23.40;17.33;;;3.20;99.90;;;;;;5107598;28;20194;-76
2020/12/01 06:26:33;;;;;;;24.80;18.17;;;3.20;99.90;;;;;;5107515;28;20198;-76
2020/12/01 06:29:32;;;;;;;23.03;17.43;;;3.20;99.90;;;;;;5107969;28;20221;-75
2020/12/01 06:32:35;;;;;;;23.17;18.13;;;3.20;99.90;;;;;;5099352;28;20208;-78
2020/12/01 06:35:49;;;;;;;29.80;24.40;;;3.20;99.90;;;;;;5091814;28;20218;-76
2020/12/01 06:38:28;;;;;;;25.77;18.80;;;3.20;99.90;;;;;;5033882;28;20213;-76
2020/12/01 06:40:59;;;;;;;22.27;17.27;;;3.30;99.90;;;;;;5048415;28;20220;-76
2020/12/01 06:43:29;;;;;;;24.43;17.93;;;3.30;99.90;;;;;;5082349;28;20574;-76
2020/12/01 06:45:58;;;;;;;23.27;18.53;;;3.30;99.90;;;;;;5108206;28;20194;-76
2020/12/01 06:48:31;;;;;;;24.00;18.73;;;3.30;99.90;;;;;;5100945;28;20208;-75
2020/12/01 06:51:00;;;;;;;26.50;18.50;;;3.30;99.90;;;;;;5098739;28;20194;-76
2020/12/01 06:53:31;;;;;;;22.73;18.00;;;3.20;99.90;;;;;;5101058;28;20316;-76
2020/12/01 06:55:58;;;;;;;22.27;17.43;;;3.20;99.90;;;;;;5097222;28;20839;-76
2020/12/01 06:58:39;;;;;;;25.17;18.43;;;3.20;99.90;;;;;;5098250;28;20198;-76
2020/12/01 07:01:09;;;;;;;22.73;17.83;;;3.20;99.90;;;;;;5094902;28;20193;-75
2020/12/01 07:03:36;;;;;;;22.37;17.80;;;3.30;99.90;;;;;;5100715;28;20278;-76
2020/12/01 07:06:36;;;;;;;24.10;18.07;;;3.20;99.90;;;;;;5100948;28;20247;-76
2020/12/01 07:09:06;;;;;;;23.37;17.13;;;3.20;99.90;;;;;;5098131;28;20564;-76
2020/12/01 07:11:38;;;;;;;24.40;18.03;;;3.30;99.90;;;;;;5101287;28;20219;-76
2020/12/01 07:14:16;;;;;;;24.10;18.40;;;3.30;99.90;;;;;;5102121;28;20641;-76
2020/12/01 07:16:45;;;;;;;23.17;17.93;;;3.30;99.90;;;;;;5101972;28;20569;-75
2020/12/01 07:19:18;;;;;;;23.33;17.77;;;3.30;99.90;;;;;;5098138;28;20199;-75
2020/12/01 07:21:56;;;;;;;23.37;18.07;;;3.30;99.90;;;;;;5089685;28;20222;-75
2020/12/01 07:24:37;;;;;;;22.63;18.57;;;3.30;99.90;;;;;;5090048;28;20205;-76
2020/12/01 07:27:12;;;;;;;23.50;17.80;;;3.30;99.90;;;;;;5090497;28;20278;-75
2020/12/01 07:30:01;;;;;;;26.43;18.60;;;3.30;99.90;;;;;;5089340;28;20212;-76
2020/12/01 07:32:30;;;;;;;23.83;18.27;;;3.30;99.90;;;;;;5099835;28;20199;-75
2020/12/01 07:35:08;;;;;;;23.57;17.20;;;3.30;99.90;;;;;;5100744;28;20730;-75
2020/12/01 07:37:56;;;;;;;23.70;18.33;;;3.30;99.90;;;;;;5101228;28;20285;-75
2020/12/01 07:40:25;;;;;;;22.80;17.37;;;3.30;99.90;;;;;;5095454;28;20210;-76
2020/12/01 07:42:58;;;;;;;23.87;18.50;;;3.30;99.90;;;;;;5096385;28;20297;-77
2020/12/01 07:45:25;;;;;;;33.53;24.47;;;3.30;99.90;;;;;;5089082;28;20210;-77
2020/12/01 07:47:56;;;;;;;29.40;25.47;;;3.30;99.90;;;;;;5089703;28;20683;-76
2020/12/01 07:50:23;;;;;;;23.37;17.57;;;3.40;99.90;;;;;;5088539;28;20241;-76
2020/12/01 07:52:58;;;;;;;23.83;17.63;;;3.40;99.90;;;;;;5088913;28;20227;-76
2020/12/01 07:55:34;;;;;;;21.30;16.90;;;3.40;99.90;;;;;;5088963;28;20218;-76
2020/12/01 07:58:01;;;;;;;21.87;16.77;;;3.30;99.90;;;;;;5095695;28;20193;-76
2020/12/01 08:00:29;;;;;;;24.43;17.47;;;3.30;99.90;;;;;;5096585;28;20957;-76
2020/12/01 08:03:03;;;;;;;24.63;17.00;;;3.30;99.90;;;;;;5097119;28;20295;-76
2020/12/01 08:05:30;;;;;;;25.00;18.03;;;3.30;99.90;;;;;;5098176;28;20298;-76
2020/12/01 08:07:57;;;;;;;22.50;17.70;;;3.30;99.90;;;;;;5097268;28;20760;-76
2020/12/01 08:10:25;;;;;;;21.43;17.20;;;3.40;99.90;;;;;;5101507;28;20248;-76
2020/12/01 08:12:58;;;;;;;23.17;17.67;;;3.40;99.90;;;;;;5109553;27;20230;-75
2020/12/01 08:15:24;;;;;;;21.63;16.63;;;3.40;99.90;;;;;;5109673;28;20218;-76
2020/12/01 08:17:53;;;;;;;22.90;17.80;;;3.40;99.90;;;;;;5109362;28;20305;-76
2020/12/01 08:20:23;;;;;;;22.57;17.53;;;3.40;99.90;;;;;;5109375;28;20671;-75
2020/12/01 08:22:57;;;;;;;24.00;17.20;;;3.40;99.90;;;;;;5109568;28;20279;-75
2020/12/01 08:25:27;;;;;;;22.00;17.20;;;3.40;99.90;;;;;;5109730;28;20245;-76
2020/12/01 08:28:03;;;;;;;20.87;17.07;;;3.50;99.90;;;;;;5109333;28;20536;-75
2020/12/01 08:30:36;;;;;;;22.33;17.77;;;3.50;99.90;;;;;;5109450;28;20289;-76
2020/12/01 08:33:11;;;;;;;21.13;16.77;;;3.50;99.90;;;;;;5109121;28;20309;-76
2020/12/01 08:35:46;;;;;;;21.13;16.20;;;3.60;99.90;;;;;;5109015;27;20312;-76
2020/12/01 08:38:22;;;;;;;21.93;16.90;;;3.60;99.90;;;;;;5109422;28;20236;-76
2020/12/01 08:40:58;;;;;;;20.37;16.67;;;3.60;99.90;;;;;;5109469;28;20278;-75
2020/12/01 08:43:33;;;;;;;22.40;17.90;;;3.60;99.90;;;;;;5109644;28;20204;-75
2020/12/01 08:46:06;;;;;;;21.13;16.20;;;3.70;99.90;;;;;;5106258;28;20255;-76
2020/12/01 08:48:41;;;;;;;21.30;16.13;;;3.70;99.90;;;;;;5109004;28;20238;-76
2020/12/01 08:51:16;;;;;;;20.27;15.70;;;3.80;99.90;;;;;;5109132;28;20305;-76
2020/12/01 08:53:46;;;;;;;21.43;16.97;;;3.70;99.90;;;;;;5108913;28;20905;-76
2020/12/01 08:56:26;;;;;;;21.50;16.07;;;3.70;99.90;;;;;;5108976;27;20312;-76
2020/12/01 08:58:55;;;;;;;20.87;15.67;;;3.70;99.90;;;;;;5107691;28;20715;-76
2020/12/01 09:01:21;;;;;;;20.90;15.93;;;3.70;99.90;;;;;;5108737;28;20224;-76
2020/12/01 09:03:57;;;;;;;20.87;16.57;;;3.70;99.90;;;;;;5108613;28;20305;-77
2020/12/01 09:06:29;;;;;;;21.40;15.90;;;3.70;99.90;;;;;;5108784;28;20212;-76
2020/12/01 09:09:00;;;;;;;20.43;16.00;;;3.70;99.90;;;;;;5109301;28;20194;-76
2020/12/01 09:11:51;;;;;;;19.53;15.10;;;3.70;99.90;;;;;;5109644;28;20592;-76
2020/12/01 09:14:30;;;;;;;19.37;15.80;;;3.70;99.90;;;;;;5108902;28;20198;-77
2020/12/01 09:17:12;;;;;;;17.33;14.63;;;3.70;99.90;;;;;;5109101;28;20186;-77
2020/12/01 09:22:27;;;;;;;18.83;15.67;;;3.80;99.90;;;;;;5098979;28;20186;-75
2020/12/01 09:25:06;;;;;;;21.20;16.00;;;3.80;99.90;;;;;;5099640;28;20205;-75
2020/12/01 09:27:33;;;;;;;20.60;15.70;;;3.80;99.90;;;;;;5099343;28;20190;-75
2020/12/01 09:30:00;;;;;;;19.90;15.97;;;3.80;99.90;;;;;;5099066;28;20309;-75
2020/12/01 09:32:26;;;;;;;20.13;15.07;;;3.90;99.90;;;;;;5097231;28;20199;-76
2020/12/01 09:34:53;;;;;;;17.50;14.63;;;3.90;99.90;;;;;;5095980;28;20273;-75
2020/12/01 09:37:21;;;;;;;19.07;15.10;;;3.80;99.90;;;;;;5095770;28;20568;-75
2020/12/01 09:39:48;;;;;;;19.87;17.23;;;3.90;99.90;;;;;;5099059;28;21616;-76
2020/12/01 09:42:23;;;;;;;45.80;39.43;;;3.80;99.90;;;;;;5088593;28;20203;-76
2020/12/01 09:47:37;;;;;;;18.63;14.77;;;3.90;99.90;;;;;;5083576;28;20905;-75
2020/12/01 09:50:06;;;;;;;17.90;15.27;;;3.90;99.90;;;;;;5086985;28;20206;-75
2020/12/01 09:52:41;;;;;;;19.37;15.80;;;3.80;99.90;;;;;;5094638;28;21117;-75
2020/12/01 09:55:14;;;;;;;19.90;15.07;;;3.80;99.90;;;;;;5097432;28;20744;-75
2020/12/01 09:57:51;;;;;;;18.53;14.73;;;3.80;99.90;;;;;;5097224;28;20195;-75
2020/12/01 10:08:43;;;;;;;17.67;14.90;;;3.90;99.90;;;;;;5087650;28;20209;-75
2020/12/01 10:14:16;;;;;;;18.60;14.87;;;3.90;99.90;;;;;;5066951;28;20202;-75
2020/12/01 10:36:19;;;;;;;17.17;14.20;;;3.90;99.90;;;;;;5057590;28;20229;-75
2020/12/01 10:38:46;;;;;;;18.30;14.90;;;3.90;99.90;;;;;;5101141;28;20283;-75
2020/12/01 10:41:12;;;;;;;17.13;14.30;;;3.90;99.90;;;;;;5100186;28;20321;-75
2020/12/01 10:43:39;;;;;;;16.37;14.17;;;3.90;99.90;;;;;;5102413;28;20293;-76
2020/12/01 10:46:05;;;;;;;17.93;14.60;;;3.90;99.90;;;;;;5102453;28;20202;-76
2020/12/01 10:48:32;;;;;;;16.17;13.83;;;3.90;99.90;;;;;;5100910;28;20268;-75
2020/12/01 10:50:58;;;;;;;16.23;13.83;;;3.90;99.90;;;;;;5103258;28;20201;-75
2020/12/01 10:53:24;;;;;;;17.43;14.07;;;3.90;99.90;;;;;;5099582;28;20269;-75
2020/12/01 10:55:52;;;;;;;18.47;14.83;;;4.00;99.90;;;;;;5100805;28;20232;-75
2020/12/01 10:58:18;;;;;;;27.40;20.47;;;3.90;99.90;;;;;;5103648;28;20583;-75
2020/12/01 11:00:44;;;;;;;30.43;23.00;;;3.90;99.90;;;;;;5098998;27;20622;-75
2020/12/01 11:03:13;;;;;;;19.97;16.63;;;4.00;99.90;;;;;;5102223;28;21720;-76
2020/12/01 11:05:39;;;;;;;26.93;23.23;;;4.00;99.90;;;;;;5101894;28;20282;-76
2020/12/01 11:08:06;;;;;;;29.10;25.23;;;4.00;99.90;;;;;;5102436;28;20714;-75
2020/12/01 11:10:32;;;;;;;15.43;13.10;;;4.00;99.90;;;;;;5110504;27;20213;-75
2020/12/01 11:13:00;;;;;;;18.90;14.57;;;4.10;99.90;;;;;;5110791;28;20206;-74
2020/12/01 11:15:26;;;;;;;18.63;14.10;;;4.10;99.90;;;;;;5110786;27;20232;-75
2020/12/01 11:17:52;;;;;;;15.13;13.30;;;4.10;99.90;;;;;;5110901;28;20399;-74
2020/12/01 11:20:19;;;;;;;17.80;13.73;;;4.10;99.90;;;;;;5110176;28;20228;-74
2020/12/01 11:22:48;;;;;;;16.40;13.43;;;4.10;99.90;;;;;;5109902;28;20711;-74
2020/12/01 11:25:14;;;;;;;17.07;14.00;;;4.10;99.90;;;;;;5099943;28;20683;-76
2020/12/01 11:27:41;;;;;;;17.23;13.57;;;4.10;99.90;;;;;;5098891;28;20209;-75
2020/12/01 11:30:09;;;;;;;15.43;13.57;;;4.10;99.90;;;;;;5100182;28;20278;-74
2020/12/01 11:32:35;;;;;;;17.17;13.23;;;4.10;99.90;;;;;;5097438;28;20277;-75
2020/12/01 11:35:02;;;;;;;14.97;13.13;;;4.20;99.90;;;;;;5100375;28;20305;-74
2020/12/01 11:37:29;;;;;;;15.97;13.50;;;4.20;99.90;;;;;;5099230;28;20230;-75
2020/12/01 11:39:55;;;;;;;18.23;13.83;;;4.20;99.90;;;;;;5096381;28;20594;-75
2020/12/01 11:42:22;;;;;;;16.83;13.43;;;4.20;99.90;;;;;;5097991;28;20223;-75
2020/12/01 11:44:48;;;;;;;15.20;13.57;;;4.20;99.90;;;;;;5093949;28;20246;-75
2020/12/01 11:47:15;;;;;;;15.60;12.97;;;4.20;99.90;;;;;;5097529;28;20194;-75
2020/12/01 11:49:42;;;;;;;15.17;13.30;;;4.20;99.90;;;;;;5094868;28;20229;-76
2020/12/01 11:52:08;;;;;;;15.93;12.90;;;4.30;99.90;;;;;;5097547;28;20310;-75
2020/12/01 11:54:37;;;;;;;17.07;13.70;;;4.20;99.90;;;;;;5099120;28;20191;-75
2020/12/01 11:57:03;;;;;;;14.57;12.30;;;4.30;99.90;;;;;;5091045;28;20287;-76
2020/12/01 11:59:29;;;;;;;16.70;13.50;;;4.30;99.90;;;;;;5093496;28;20345;-75
2020/12/01 12:01:56;;;;;;;15.87;13.07;;;4.30;99.90;;;;;;5099429;28;20566;-75
2020/12/01 12:04:23;;;;;;;14.60;12.90;;;4.30;99.90;;;;;;5090197;28;20282;-75
2020/12/01 12:06:49;;;;;;;15.97;12.77;;;4.40;99.90;;;;;;5097875;28;20827;-75
2020/12/01 12:09:16;;;;;;;14.97;13.13;;;4.30;99.90;;;;;;5096674;28;20222;-75
2020/12/01 12:11:43;;;;;;;16.53;13.37;;;4.30;99.90;;;;;;5099700;28;20226;-76
2020/12/01 12:14:10;;;;;;;15.57;12.80;;;4.30;99.90;;;;;;5091421;28;20669;-75
2020/12/01 12:16:37;;;;;;;16.13;12.83;;;4.30;99.90;;;;;;5089727;28;20239;-75
2020/12/01 12:19:03;;;;;;;14.70;13.13;;;4.40;99.90;;;;;;5089918;28;20300;-75
2020/12/01 12:21:31;;;;;;;15.53;13.07;;;4.30;99.90;;;;;;5089772;28;20209;-74
2020/12/01 12:23:57;;;;;;;18.57;12.83;;;4.30;99.90;;;;;;5089708;28;20740;-75
2020/12/01 12:26:24;;;;;;;16.77;12.97;;;4.40;99.90;;;;;;5089785;28;20304;-75
2020/12/01 12:28:50;;;;;;;13.63;11.93;;;4.40;99.90;;;;;;5093464;28;20201;-76
2020/12/01 12:31:18;;;;;;;14.33;12.77;;;4.50;99.90;;;;;;5108649;28;20297;-75
2020/12/01 12:33:45;;;;;;;16.47;13.23;;;4.50;99.90;;;;;;5096518;28;20285;-76
2020/12/01 12:36:11;;;;;;;16.87;13.83;;;4.50;99.90;;;;;;5101165;28;20218;-76
2020/12/01 12:38:38;;;;;;;15.93;13.57;;;4.50;99.90;;;;;;5104944;27;20373;-75
2020/12/01 12:41:06;;;;;;;22.33;12.77;;;4.50;99.90;;;;;;5105220;28;20289;-76
2020/12/01 12:43:32;;;;;;;14.73;12.73;;;4.50;99.90;;;;;;5092960;28;20602;-76
2020/12/01 12:45:59;;;;;;;16.20;13.57;;;4.50;99.90;;;;;;5103402;28;20212;-76
2020/12/01 12:48:27;;;;;;;15.07;13.47;;;4.50;99.90;;;;;;5099526;28;20201;-76
2020/12/01 12:50:54;;;;;;;15.70;13.53;;;4.50;99.90;;;;;;5093597;28;20780;-75
2020/12/01 12:53:20;;;;;;;16.20;13.40;;;4.50;99.90;;;;;;5091311;28;20324;-76
2020/12/01 12:55:48;;;;;;;15.10;12.77;;;4.50;99.90;;;;;;5089334;28;20321;-76
2020/12/01 12:58:14;;;;;;;16.43;13.00;;;4.50;99.90;;;;;;5089042;28;20282;-76
2020/12/01 13:00:40;;;;;;;16.17;13.33;;;4.50;99.90;;;;;;5093553;28;20201;-76
2020/12/01 13:03:07;;;;;;;15.47;13.13;;;4.50;99.90;;;;;;5094810;28;20206;-76
2020/12/01 13:05:33;;;;;;;14.57;12.73;;;4.50;99.90;;;;;;5093790;28;20292;-76
2020/12/01 13:07:59;;;;;;;15.67;13.27;;;4.50;99.90;;;;;;5089190;28;20237;-76
2020/12/01 13:10:26;;;;;;;16.03;13.17;;;4.60;99.90;;;;;;5088831;28;20213;-76
2020/12/01 13:12:54;;;;;;;15.10;13.50;;;4.60;99.90;;;;;;5091727;28;20208;-76
2020/12/01 13:15:21;;;;;;;15.97;13.00;;;4.50;99.90;;;;;;5088671;28;20237;-75
2020/12/01 13:17:47;;;;;;;15.23;12.27;;;4.60;99.90;;;;;;5088589;28;20210;-75
2020/12/01 13:20:17;;;;;;;15.50;13.40;;;4.50;99.90;;;;;;5088382;28;20305;-75
2020/12/01 13:22:43;;;;;;;15.67;12.83;;;4.50;99.90;;;;;;5088840;28;20199;-75
2020/12/01 13:25:10;;;;;;;14.57;12.27;;;4.50;99.90;;;;;;5088939;28;20287;-75
2020/12/01 13:27:36;;;;;;;15.53;12.80;;;4.50;99.90;;;;;;5088852;28;20241;-75
2020/12/01 13:30:04;;;;;;;16.33;12.97;;;4.60;99.90;;;;;;5089109;28;20218;-76
2020/12/01 13:32:31;;;;;;;14.83;12.53;;;4.50;99.90;;;;;;5088510;28;20289;-76